Slavutich-16 — ENYT — position and weather

sailwx.info

Track history (hours):
 
Tides and Currents Weather Stations Pressure Air Temp Water Temp Dewpoint Dewpoint Depression Visibility Wind Speed Wind Dir Waves Ship Positions

Slavutich-16

Last reported at 2014-Sep-30 04:16 UTC. Time now 2014-Sep-30 14:02 UTC.
Position N 47°44' E 035°10'.

Length 108 m; draft 3.4 m.

Type: Cargo ship. MMSI: 272046000.

Date/timePositionNaut miles runAvg speedWind from/ knotsBaromVisibWave heightAir tempDewpointWater temp
2014-Sep-30 04:16N 47°44' E 035°10'5 6.8
2014-Sep-30 03:33N 47°49' E 035°09'4 3.0
2014-Sep-30 02:20N 47°52' E 035°06'1 0.9
2014-Sep-30 01:33N 47°52' E 035°06'0 0.0
2014-Sep-30 00:33N 47°52' E 035°06'0 0.0
2014-Sep-29 23:15N 47°52' E 035°06'0 0.0
2014-Sep-29 20:27N 47°52' E 035°06'  
2014-Sep-23 02:06N 47°58' E 035°07'4 7.6
2014-Sep-23 01:33N 47°54' E 035°06'2 2.2
2014-Sep-23 00:33N 47°52' E 035°05'3 3.4
2014-Sep-22 23:33N 47°49' E 035°08'146 5.8
2014-Sep-21 22:33N 46°32' E 032°07'7 7.0
2014-Sep-21 21:34N 46°34' E 031°57'7 7.0
2014-Sep-21 20:33N 46°36' E 031°47'  
Track history (hours):
 
Tides and Currents Weather Stations Pressure Air Temp Water Temp Dewpoint Dewpoint Depression Visibility Wind Speed Wind Dir Waves Ship Positions

Slavutich-16

Last reported at 2014-Sep-30 04:16 UTC. Time now 2014-Sep-30 14:02 UTC.
Position N 47°44' E 035°10'.

Length 108 m; draft 3.4 m.

Type: Cargo ship. MMSI: 272046000.

Date/timePositionNaut miles runAvg speedWind from/ knotsBaromVisibWave heightAir tempDewpointWater temp
2014-Sep-30 04:16N 47°44' E 035°10'5 6.8
2014-Sep-30 03:33N 47°49' E 035°09'4 3.0
2014-Sep-30 02:20N 47°52' E 035°06'1 0.9
2014-Sep-30 01:33N 47°52' E 035°06'0 0.0
2014-Sep-30 00:33N 47°52' E 035°06'0 0.0
2014-Sep-29 23:15N 47°52' E 035°06'0 0.0
2014-Sep-29 20:27N 47°52' E 035°06'  
2014-Sep-23 02:06N 47°58' E 035°07'4 7.6
2014-Sep-23 01:33N 47°54' E 035°06'2 2.2
2014-Sep-23 00:33N 47°52' E 035°05'3 3.4
2014-Sep-22 23:33N 47°49' E 035°08'146 5.8
2014-Sep-21 22:33N 46°32' E 032°07'7 7.0
2014-Sep-21 21:34N 46°34' E 031°57'7 7.0
2014-Sep-21 20:33N 46°36' E 031°47'  

Dump ship's entire track history